createdAt,value
2023-01-19T00:02:42.059Z,5.52
2023-01-19T00:07:44.268Z,5.47
2023-01-19T00:12:46.443Z,5.38
2023-01-19T00:17:48.595Z,5.45
2023-01-19T00:22:51.159Z,5.23
2023-01-19T00:27:53.269Z,5.26
2023-01-19T00:32:55.723Z,5.29
2023-01-19T00:37:58.656Z,5.24
2023-01-19T00:43:01.238Z,5.22
2023-01-19T00:48:03.949Z,5.24
2023-01-19T00:53:06.147Z,5.25
2023-01-19T00:58:08.246Z,5.11
2023-01-19T01:03:10.734Z,5.01
2023-01-19T01:08:12.804Z,5.06
2023-01-19T01:13:20.861Z,5.00
2023-01-19T01:18:25.945Z,4.85
2023-01-19T01:23:28.058Z,4.83
2023-01-19T01:28:31.628Z,4.73
2023-01-19T01:33:40.939Z,4.85
2023-01-19T01:38:43.771Z,4.69
2023-01-19T01:43:58.501Z,4.69
2023-01-19T01:49:15.784Z,4.48
2023-01-19T01:54:30.901Z,4.58
2023-01-19T01:59:39.363Z,4.51
2023-01-19T02:04:47.305Z,4.26
2023-01-19T02:10:08.257Z,4.17
2023-01-19T02:15:18.426Z,4.20
2023-01-19T02:20:24.120Z,4.14
2023-01-19T02:25:26.943Z,4.26
2023-01-19T02:30:29.658Z,4.01
2023-01-19T02:35:32.428Z,4.14
2023-01-19T02:40:36.953Z,4.27
2023-01-19T02:45:39.603Z,4.06
2023-01-19T02:50:49.501Z,4.14
2023-01-19T02:56:04.870Z,3.96
2023-01-19T03:01:24.110Z,4.14
2023-01-19T03:06:41.417Z,3.93
2023-01-19T03:11:50.300Z,3.97
2023-01-19T03:16:57.331Z,3.90
2023-01-19T03:22:03.946Z,3.79
2023-01-19T03:27:18.355Z,3.85
2023-01-19T03:32:26.036Z,4.06
2023-01-19T03:37:30.438Z,4.01
2023-01-19T03:42:33.269Z,3.91
2023-01-19T03:47:36.409Z,4.03
2023-01-19T03:52:38.912Z,3.90
2023-01-19T03:57:41.073Z,3.83
2023-01-19T04:02:43.186Z,3.88
2023-01-19T04:07:47.782Z,3.81
2023-01-19T04:12:49.876Z,3.96
2023-01-19T04:17:52.178Z,3.90
2023-01-19T04:22:56.703Z,3.58
2023-01-19T04:27:58.855Z,3.59
2023-01-19T04:33:01.317Z,3.30
2023-01-19T04:38:03.773Z,3.36
2023-01-19T04:43:05.992Z,3.50
2023-01-19T04:48:08.683Z,3.59
2023-01-19T04:53:12.379Z,3.45
2023-01-19T04:58:15.197Z,3.31
2023-01-19T05:03:17.347Z,3.38
2023-01-19T05:08:19.523Z,3.47
2023-01-19T05:13:21.666Z,3.43
2023-01-19T05:18:23.779Z,3.22
2023-01-19T05:23:25.807Z,3.26
2023-01-19T05:28:32.675Z,3.35
2023-01-19T05:33:34.869Z,3.49
2023-01-19T05:38:36.956Z,3.54
2023-01-19T05:43:39.078Z,3.53
2023-01-19T05:48:41.201Z,3.77
2023-01-19T05:53:43.371Z,3.70
2023-01-19T05:58:45.496Z,3.75
2023-01-19T06:03:48.778Z,3.68
2023-01-19T06:08:50.951Z,3.64
2023-01-19T06:13:53.240Z,3.59
2023-01-19T06:18:55.885Z,3.57
2023-01-19T06:23:58.765Z,3.43
2023-01-19T06:29:01.416Z,3.28
2023-01-19T06:34:04.305Z,3.23
2023-01-19T06:39:06.433Z,2.99
2023-01-19T06:44:09.271Z,3.31
2023-01-19T06:49:11.389Z,3.55
2023-01-19T06:54:13.606Z,3.57
2023-01-19T06:59:15.798Z,3.52
2023-01-19T07:04:17.885Z,3.59
2023-01-19T07:09:20.551Z,3.63
2023-01-19T07:14:22.738Z,3.60
2023-01-19T07:19:24.987Z,3.57
2023-01-19T07:24:27.267Z,3.59
2023-01-19T07:29:29.674Z,3.83
2023-01-19T07:34:31.903Z,3.98
2023-01-19T07:39:36.603Z,3.96
2023-01-19T07:44:38.755Z,4.03
2023-01-19T07:49:40.903Z,4.15
2023-01-19T07:54:43.144Z,4.26
2023-01-19T07:59:45.362Z,4.26
2023-01-19T08:04:50.554Z,4.26
2023-01-19T08:09:52.796Z,4.28
2023-01-19T08:14:54.899Z,4.26
2023-01-19T08:19:57.332Z,4.15
2023-01-19T08:24:59.413Z,4.18
2023-01-19T08:30:01.472Z,4.26
2023-01-19T08:35:03.805Z,4.19
2023-01-19T08:40:06.646Z,4.43
2023-01-19T08:45:09.460Z,4.36
2023-01-19T08:50:12.003Z,4.48
2023-01-19T08:55:14.164Z,4.57
2023-01-19T09:00:16.733Z,4.43
2023-01-19T09:05:19.544Z,4.38
2023-01-19T09:10:21.881Z,4.43
2023-01-19T09:15:24.049Z,4.45
2023-01-19T09:20:26.291Z,4.39
2023-01-19T09:25:28.390Z,4.42
2023-01-19T09:30:30.951Z,4.44
2023-01-19T09:35:33.880Z,4.43
2023-01-19T09:40:44.920Z,4.38
2023-01-19T09:45:50.151Z,4.48
2023-01-19T09:50:55.907Z,4.41
2023-01-19T09:55:58.471Z,4.29
2023-01-19T10:01:15.025Z,4.21
2023-01-19T10:06:18.215Z,4.27
2023-01-19T10:11:34.530Z,4.02
2023-01-19T10:16:59.235Z,3.85
2023-01-19T10:22:13.269Z,3.68
2023-01-19T10:27:23.963Z,3.67
2023-01-19T10:32:30.487Z,3.58
2023-01-19T10:37:42.064Z,3.51
2023-01-19T10:42:44.241Z,3.33
2023-01-19T10:47:47.785Z,3.24
2023-01-19T10:52:55.082Z,3.18
2023-01-19T10:57:58.922Z,3.04
2023-01-19T11:03:02.091Z,3.14
2023-01-19T11:08:23.031Z,2.89
2023-01-19T11:13:25.319Z,2.96
2023-01-19T11:18:33.931Z,3.09
2023-01-19T11:23:43.053Z,3.02
2023-01-19T11:28:51.408Z,2.96
2023-01-19T11:33:56.523Z,2.71
2023-01-19T11:39:21.616Z,2.63
2023-01-19T11:44:30.091Z,2.90
2023-01-19T11:49:49.640Z,3.00
2023-01-19T11:55:17.276Z,2.96
2023-01-19T12:00:31.605Z,2.99
2023-01-19T12:05:41.249Z,3.20
2023-01-19T12:10:46.939Z,3.20
2023-01-19T12:15:55.144Z,3.24
2023-01-19T12:20:58.902Z,3.17
2023-01-19T12:26:13.105Z,3.19
2023-01-19T12:31:17.948Z,3.40
2023-01-19T12:36:40.926Z,3.54
2023-01-19T12:41:43.479Z,3.50
2023-01-19T12:46:50.200Z,3.52
2023-01-19T12:51:55.598Z,3.35
2023-01-19T12:57:01.136Z,3.19
2023-01-19T13:02:24.908Z,3.18
2023-01-19T13:07:27.109Z,3.12
2023-01-19T13:12:29.472Z,3.25
2023-01-19T13:17:36.519Z,3.46
2023-01-19T13:22:50.312Z,3.73
2023-01-19T13:27:52.568Z,3.68
2023-01-19T13:33:06.475Z,3.55
2023-01-19T13:38:14.201Z,3.47
2023-01-19T13:43:21.198Z,3.50
2023-01-19T13:48:25.086Z,3.59
2023-01-19T13:53:27.698Z,3.43
2023-01-19T13:58:31.980Z,3.57
2023-01-19T14:03:34.229Z,3.27
2023-01-19T14:08:37.052Z,3.31
2023-01-19T14:13:44.910Z,3.13
2023-01-19T14:18:59.602Z,2.89
2023-01-19T14:24:10.501Z,2.94
2023-01-19T14:29:33.777Z,3.26
2023-01-19T14:34:51.200Z,3.16
2023-01-19T14:40:08.158Z,3.01
2023-01-19T14:45:30.349Z,2.98
2023-01-19T14:50:42.840Z,3.11
2023-01-19T14:55:55.513Z,2.87
2023-01-19T15:00:58.245Z,2.72
2023-01-19T15:06:03.543Z,2.63
2023-01-19T15:11:13.856Z,2.55
2023-01-19T15:16:16.372Z,2.67
2023-01-19T15:21:21.751Z,2.69
2023-01-19T15:26:25.587Z,2.62
2023-01-19T15:31:27.910Z,2.71
2023-01-19T15:36:30.089Z,2.63
2023-01-19T15:41:32.801Z,2.76
2023-01-19T15:46:34.941Z,2.62
2023-01-19T15:51:37.125Z,2.62
2023-01-19T15:56:41.432Z,2.67
2023-01-19T16:01:43.684Z,2.73
2023-01-19T16:06:45.974Z,2.50
2023-01-19T16:11:48.173Z,2.56
2023-01-19T16:16:50.359Z,2.57
2023-01-19T16:21:52.561Z,2.54
2023-01-19T16:26:54.640Z,2.65
2023-01-19T16:31:57.288Z,2.65
2023-01-19T16:36:59.409Z,2.78
2023-01-19T16:42:01.533Z,2.89
2023-01-19T16:47:04.748Z,2.84
2023-01-19T16:52:07.497Z,2.76
2023-01-19T16:57:12.169Z,2.66
2023-01-19T17:02:14.332Z,2.70
2023-01-19T17:07:18.914Z,2.74
2023-01-19T17:12:21.451Z,2.64
2023-01-19T17:17:23.587Z,2.53
2023-01-19T17:22:25.774Z,2.54
2023-01-19T17:27:27.922Z,2.59
2023-01-19T17:32:30.027Z,2.50
2023-01-19T17:37:32.121Z,2.53
2023-01-19T17:42:38.375Z,2.52
2023-01-19T17:47:40.491Z,2.59
2023-01-19T17:52:42.896Z,2.54
2023-01-19T17:57:45.088Z,2.38
2023-01-19T18:02:52.106Z,2.53
2023-01-19T18:07:54.232Z,2.63
2023-01-19T18:12:56.277Z,2.58
2023-01-19T18:17:58.351Z,2.45
2023-01-19T18:23:00.527Z,2.55
2023-01-19T18:28:02.672Z,2.43
2023-01-19T18:33:04.788Z,2.51
2023-01-19T18:38:06.927Z,2.33
2023-01-19T18:43:10.608Z,2.40
2023-01-19T18:48:12.748Z,2.43
2023-01-19T18:53:14.841Z,2.34
2023-01-19T18:58:16.953Z,2.35
2023-01-19T19:03:20.438Z,2.24
2023-01-19T19:08:22.636Z,2.17
2023-01-19T19:13:25.450Z,2.22
2023-01-19T19:18:27.621Z,2.28
2023-01-19T19:23:30.072Z,2.18
2023-01-19T19:28:35.306Z,2.32
2023-01-19T19:33:38.285Z,2.15
2023-01-19T19:38:44.537Z,2.15
2023-01-19T19:43:46.841Z,2.07
2023-01-19T19:48:49.814Z,2.13
2023-01-19T19:53:54.222Z,1.99
2023-01-19T19:58:57.734Z,1.97
2023-01-19T20:04:05.749Z,1.66
2023-01-19T20:09:09.197Z,1.86
2023-01-19T20:14:13.536Z,1.97
2023-01-19T20:19:15.683Z,1.96
2023-01-19T20:24:19.927Z,1.83
2023-01-19T20:29:22.195Z,1.96
2023-01-19T20:34:28.192Z,1.77
2023-01-19T20:39:33.423Z,1.68
2023-01-19T20:44:35.731Z,1.81
2023-01-19T20:49:37.969Z,1.78
2023-01-19T20:54:41.114Z,1.77
2023-01-19T20:59:43.321Z,1.68
2023-01-19T21:04:45.448Z,1.90
2023-01-19T21:09:47.582Z,1.87
2023-01-19T21:14:49.758Z,1.91
2023-01-19T21:19:51.955Z,1.69
2023-01-19T21:24:54.097Z,1.72
2023-01-19T21:29:56.380Z,1.74
2023-01-19T21:34:58.471Z,1.72
2023-01-19T21:40:00.581Z,1.63
2023-01-19T21:45:02.777Z,1.69
2023-01-19T21:50:05.300Z,1.70
2023-01-19T21:55:08.127Z,1.79
2023-01-19T22:00:10.798Z,1.97
2023-01-19T22:05:13.687Z,2.04
2023-01-19T22:10:16.545Z,2.08
2023-01-19T22:15:18.910Z,2.06
2023-01-19T22:20:20.996Z,1.84
2023-01-19T22:25:27.706Z,1.81
2023-01-19T22:30:30.054Z,1.71
2023-01-19T22:35:33.337Z,1.82
2023-01-19T22:40:35.432Z,1.53
2023-01-19T22:45:41.465Z,1.84
2023-01-19T22:50:43.590Z,1.61
2023-01-19T22:55:45.693Z,1.58
2023-01-19T23:00:47.766Z,1.63
2023-01-19T23:05:49.908Z,1.87
2023-01-19T23:10:51.988Z,1.87
2023-01-19T23:15:54.146Z,1.69
2023-01-19T23:20:56.292Z,1.83
2023-01-19T23:26:16.160Z,1.77
2023-01-19T23:31:32.512Z,1.64
2023-01-19T23:36:37.000Z,1.85
2023-01-19T23:41:39.231Z,1.89
2023-01-19T23:46:42.116Z,2.01
2023-01-19T23:51:44.262Z,1.71
2023-01-19T23:56:46.398Z,1.37
